Time;durP1;ratioP1;P1;durP2;ratioP2;P2;SDS_P1;SDS_P2;PMS_P1;PMS_P2;Temp;Humidity;BMP_temperature;BMP_pressure;BME280_temperature;BME280_humidity;BME280_pressure;Samples;Min_cycle;Max_cycle;Signal;HPM_P1;HPM_P2
2022/05/07 00:00:38;;;;;;;12.70;11.30;;;9.70;99.90;;;;;;5037160;28;20033;-60
2022/05/07 00:03:04;;;;;;;11.25;10.07;;;9.70;99.90;;;;;;5037779;28;20394;-60
2022/05/07 00:05:31;;;;;;;14.02;12.43;;;9.60;99.90;;;;;;5034367;28;20546;-60
2022/05/07 00:07:57;;;;;;;15.60;12.18;;;9.80;99.90;;;;;;5036434;28;20017;-60
2022/05/07 00:10:23;;;;;;;14.85;12.32;;;9.90;99.90;;;;;;5038382;28;20037;-62
2022/05/07 00:12:49;;;;;;;13.27;11.85;;;9.90;99.90;;;;;;5037166;28;20033;-60
2022/05/07 00:15:15;;;;;;;13.80;12.27;;;10.00;99.90;;;;;;5037036;28;20100;-60
2022/05/07 00:20:26;;;;;;;13.13;10.77;;;9.80;99.90;;;;;;5018727;28;20059;-61
2022/05/07 00:22:51;;;;;;;13.05;11.65;;;9.70;99.90;;;;;;5037564;28;20101;-60
2022/05/07 00:25:17;;;;;;;12.88;10.82;;;9.70;99.90;;;;;;5035869;28;20120;-60
2022/05/07 00:27:43;;;;;;;11.88;10.65;;;9.80;99.90;;;;;;5036775;28;20029;-60
2022/05/07 00:30:09;;;;;;;12.50;11.20;;;9.70;99.90;;;;;;5036760;28;20041;-60
2022/05/07 00:32:34;;;;;;;13.27;11.35;;;9.80;99.90;;;;;;5033408;28;20517;-60
2022/05/07 00:35:00;;;;;;;18.45;11.13;;;9.70;99.90;;;;;;5035666;28;20364;-60
2022/05/07 00:37:26;;;;;;;13.30;10.45;;;9.70;99.90;;;;;;5037844;28;20042;-60
2022/05/07 00:39:52;;;;;;;12.80;10.50;;;9.50;99.90;;;;;;5037090;28;20041;-60
2022/05/07 00:42:20;;;;;;;14.80;11.60;;;9.50;99.90;;;;;;5036633;28;20056;-61
2022/05/07 00:44:46;;;;;;;15.07;11.13;;;9.30;99.90;;;;;;5035813;28;20036;-61
2022/05/07 00:47:15;;;;;;;13.65;12.05;;;9.40;99.90;;;;;;5032958;28;20113;-60
2022/05/07 00:49:43;;;;;;;13.45;11.98;;;9.40;99.90;;;;;;5038526;28;20057;-61
2022/05/07 00:52:09;;;;;;;15.85;12.00;;;9.30;99.90;;;;;;5036404;28;20045;-60
2022/05/07 00:54:35;;;;;;;13.25;10.88;;;9.30;99.90;;;;;;5036538;28;20113;-60
2022/05/07 00:57:02;;;;;;;12.98;11.50;;;9.40;99.90;;;;;;5035188;28;20424;-60
2022/05/07 00:59:28;;;;;;;16.27;12.18;;;9.40;99.90;;;;;;5033074;28;20079;-60
2022/05/07 01:01:53;;;;;;;13.90;12.20;;;9.40;99.90;;;;;;5036627;28;20037;-60
2022/05/07 01:04:19;;;;;;;14.65;11.25;;;9.40;99.90;;;;;;5035784;28;20018;-60
2022/05/07 01:06:45;;;;;;;12.20;11.00;;;9.40;99.90;;;;;;5036157;28;20506;-60
2022/05/07 01:09:11;;;;;;;12.90;11.60;;;9.40;99.90;;;;;;5035988;28;20029;-60
2022/05/07 01:11:37;;;;;;;14.48;12.25;;;9.30;99.90;;;;;;5034104;28;20044;-60
2022/05/07 01:14:03;;;;;;;12.85;10.52;;;9.20;99.90;;;;;;5033980;28;20112;-60
2022/05/07 01:16:29;;;;;;;14.43;11.55;;;9.00;99.90;;;;;;5036954;28;20531;-63
2022/05/07 01:18:55;;;;;;;13.30;10.93;;;9.20;99.90;;;;;;5035419;28;20486;-60
2022/05/07 01:21:20;;;;;;;12.20;10.38;;;9.20;99.90;;;;;;5035851;28;20041;-60
2022/05/07 01:23:49;;;;;;;11.98;10.25;;;9.10;99.90;;;;;;5035245;28;20029;-60
2022/05/07 01:26:20;;;;;;;13.52;11.15;;;9.00;99.90;;;;;;5032047;28;20490;-61
2022/05/07 01:28:46;;;;;;;14.35;11.07;;;8.90;99.90;;;;;;5045022;28;20099;-61
2022/05/07 01:31:12;;;;;;;14.32;12.10;;;9.20;99.90;;;;;;5036044;28;20135;-60
2022/05/07 01:33:38;;;;;;;17.88;12.30;;;9.30;99.90;;;;;;5035302;28;20025;-60
2022/05/07 01:36:11;;;;;;;16.67;11.93;;;9.20;99.90;;;;;;5035777;28;20112;-60
2022/05/07 01:38:37;;;;;;;14.63;11.25;;;9.00;99.90;;;;;;5033384;28;20510;-60
2022/05/07 01:41:04;;;;;;;15.07;11.75;;;8.90;99.90;;;;;;5034178;28;20036;-61
2022/05/07 01:43:33;;;;;;;16.10;12.48;;;8.90;99.90;;;;;;5035124;28;20031;-61
2022/05/07 01:46:02;;;;;;;13.20;11.48;;;8.90;99.90;;;;;;5035168;28;20072;-60
2022/05/07 01:48:28;;;;;;;14.30;11.88;;;8.80;99.90;;;;;;5035129;28;20033;-60
2022/05/07 01:50:54;;;;;;;13.75;12.23;;;8.90;99.90;;;;;;5035349;28;20032;-60
2022/05/07 01:53:20;;;;;;;13.20;11.18;;;8.90;99.90;;;;;;5031303;28;20018;-60
2022/05/07 01:55:46;;;;;;;14.95;11.45;;;8.90;99.90;;;;;;5037265;28;20040;-60
2022/05/07 01:58:12;;;;;;;16.20;12.57;;;8.90;99.90;;;;;;5035358;28;20030;-60
2022/05/07 02:00:40;;;;;;;19.48;13.70;;;9.10;99.90;;;;;;5034853;28;20072;-60
2022/05/07 02:03:06;;;;;;;15.82;12.85;;;9.10;99.90;;;;;;5035248;28;20037;-60
2022/05/07 02:05:32;;;;;;;17.70;12.88;;;9.00;99.90;;;;;;5032299;28;20033;-60
2022/05/07 02:07:58;;;;;;;23.08;14.02;;;8.90;99.90;;;;;;5033179;28;20108;-60
2022/05/07 02:10:25;;;;;;;19.42;13.25;;;8.80;99.90;;;;;;5036311;28;20076;-60
2022/05/07 02:12:51;;;;;;;17.08;13.98;;;8.70;99.90;;;;;;5034972;28;20463;-60
2022/05/07 02:15:17;;;;;;;16.15;12.85;;;8.70;99.90;;;;;;5034794;28;20513;-60
2022/05/07 02:17:43;;;;;;;15.80;13.23;;;8.70;99.90;;;;;;5033206;28;20021;-60
2022/05/07 02:20:09;;;;;;;14.70;13.05;;;8.60;99.90;;;;;;5031984;28;20041;-60
2022/05/07 02:22:35;;;;;;;21.40;14.60;;;8.70;99.90;;;;;;5035281;28;20478;-60
2022/05/07 02:25:02;;;;;;;16.67;13.45;;;8.80;99.90;;;;;;5034913;28;20025;-60
2022/05/07 02:27:27;;;;;;;16.98;14.15;;;8.80;99.90;;;;;;5034668;28;20026;-60
2022/05/07 02:29:53;;;;;;;19.67;13.93;;;8.80;99.90;;;;;;5034384;28;20382;-60
2022/05/07 02:32:19;;;;;;;20.75;14.70;;;8.90;99.90;;;;;;5030137;28;20037;-60
2022/05/07 02:34:46;;;;;;;18.67;14.07;;;8.90;99.90;;;;;;5036625;28;20470;-60
2022/05/07 02:37:12;;;;;;;25.83;15.73;;;8.80;99.90;;;;;;5034242;28;20049;-60
2022/05/07 02:39:37;;;;;;;26.67;16.30;;;8.80;99.90;;;;;;5034617;28;20025;-60
2022/05/07 02:44:49;;;;;;;27.60;17.35;;;8.80;99.90;;;;;;5034180;28;20039;-60
2022/05/07 02:47:14;;;;;;;27.20;16.75;;;8.80;99.90;;;;;;5030297;28;20397;-60
2022/05/07 02:49:40;;;;;;;26.92;16.80;;;8.70;99.90;;;;;;5036699;28;20450;-60
2022/05/07 02:52:06;;;;;;;26.92;16.05;;;8.60;99.90;;;;;;5034428;28;20091;-60
2022/05/07 02:54:32;;;;;;;25.10;16.95;;;8.60;99.90;;;;;;5033444;28;20048;-60
2022/05/07 02:56:58;;;;;;;28.25;18.02;;;8.60;99.90;;;;;;5034266;28;20024;-60
2022/05/07 02:59:24;;;;;;;27.27;18.05;;;8.70;99.90;;;;;;5029379;28;20025;-60
2022/05/07 03:01:50;;;;;;;29.33;19.40;;;8.60;99.90;;;;;;5035337;28;20030;-60
2022/05/07 03:04:16;;;;;;;29.10;18.50;;;8.60;99.90;;;;;;5034603;28;20116;-60
2022/05/07 03:06:42;;;;;;;26.40;17.48;;;8.50;99.90;;;;;;5034041;28;20480;-60
2022/05/07 03:09:08;;;;;;;30.63;18.55;;;8.50;99.90;;;;;;5034322;28;20115;-60
2022/05/07 03:11:34;;;;;;;28.27;17.75;;;8.40;99.90;;;;;;5031499;28;20068;-60
2022/05/07 03:14:04;;;;;;;24.23;16.58;;;8.40;99.90;;;;;;5032978;28;20421;-60
2022/05/07 03:16:30;;;;;;;31.98;18.83;;;8.30;99.90;;;;;;5035887;28;20037;-62
2022/05/07 03:18:56;;;;;;;31.02;20.45;;;8.20;99.90;;;;;;5034039;28;20112;-60
2022/05/07 03:21:21;;;;;;;27.50;17.83;;;8.30;99.90;;;;;;5033907;28;20105;-60
2022/05/07 03:23:47;;;;;;;27.73;18.92;;;8.50;99.90;;;;;;5033291;28;20405;-60
2022/05/07 03:26:13;;;;;;;25.90;18.80;;;8.50;99.90;;;;;;5030739;28;20045;-60
2022/05/07 03:28:40;;;;;;;24.00;18.48;;;8.60;99.90;;;;;;5035824;28;20021;-61
2022/05/07 03:31:06;;;;;;;25.83;18.83;;;8.60;99.90;;;;;;5033514;28;20085;-60
2022/05/07 03:33:32;;;;;;;24.90;18.33;;;8.60;99.90;;;;;;5033828;28;20033;-60
2022/05/07 03:35:58;;;;;;;24.95;18.33;;;8.40;99.90;;;;;;5033834;28;20455;-60
2022/05/07 03:38:24;;;;;;;22.25;17.23;;;8.50;99.90;;;;;;5028541;28;20076;-60
2022/05/07 03:40:50;;;;;;;28.83;18.55;;;8.40;99.90;;;;;;5035363;28;20065;-60
2022/05/07 03:43:16;;;;;;;24.38;17.50;;;8.40;99.90;;;;;;5032471;28;20030;-60
2022/05/07 03:45:42;;;;;;;25.05;17.30;;;8.40;99.90;;;;;;5033751;28;20622;-60
2022/05/07 03:48:09;;;;;;;23.80;16.63;;;8.50;99.90;;;;;;5033774;28;20393;-60
2022/05/07 03:50:35;;;;;;;25.25;16.67;;;8.60;99.90;;;;;;5031452;28;20108;-60
2022/05/07 03:55:45;;;;;;;22.65;16.35;;;8.60;99.90;;;;;;5035963;28;20087;-59
2022/05/07 03:58:15;;;;;;;28.98;18.13;;;8.50;99.90;;;;;;5033175;28;20022;-59
2022/05/07 04:00:41;;;;;;;39.03;19.45;;;8.60;99.90;;;;;;5033668;28;20033;-60
2022/05/07 04:03:07;;;;;;;58.25;22.17;;;8.50;99.90;;;;;;5032705;28;20094;-60
2022/05/07 04:05:32;;;;;;;82.90;27.33;;;8.50;99.90;;;;;;5031793;28;20030;-60
2022/05/07 04:07:58;;;;;;;142.48;35.22;;;8.40;99.90;;;;;;5036466;28;20022;-59
2022/05/07 04:10:24;;;;;;;154.68;38.65;;;8.30;99.90;;;;;;5038389;28;20394;-60
2022/05/07 04:12:51;;;;;;;63.55;29.33;;;8.30;99.90;;;;;;5037234;28;20033;-60
2022/05/07 04:15:20;;;;;;;67.90;33.67;;;8.20;99.90;;;;;;5037181;28;20033;-60
2022/05/07 04:17:46;;;;;;;54.88;31.02;;;8.20;99.90;;;;;;5035146;28;20087;-60
2022/05/07 04:20:12;;;;;;;50.55;28.65;;;8.20;99.90;;;;;;5033667;28;20038;-60
2022/05/07 04:22:39;;;;;;;79.75;33.00;;;8.30;99.90;;;;;;5038949;28;20033;-61
2022/05/07 04:25:06;;;;;;;39.65;27.15;;;8.20;99.90;;;;;;5036940;28;20094;-60
2022/05/07 04:27:32;;;;;;;54.42;30.90;;;8.10;99.90;;;;;;5036639;28;20072;-60
2022/05/07 04:29:58;;;;;;;45.50;28.50;;;8.00;99.90;;;;;;5037331;28;20036;-60
2022/05/07 04:32:27;;;;;;;60.53;31.17;;;8.10;99.90;;;;;;5033062;28;20510;-60
2022/05/07 04:34:55;;;;;;;40.45;27.27;;;8.00;99.90;;;;;;5035894;28;20025;-60
2022/05/07 04:37:24;;;;;;;36.58;25.77;;;7.90;99.90;;;;;;5037133;28;20061;-60
2022/05/07 04:39:50;;;;;;;43.85;26.95;;;7.80;99.90;;;;;;5035480;28;20029;-60
2022/05/07 04:42:15;;;;;;;42.88;27.38;;;7.70;99.90;;;;;;5036678;28;20382;-60
2022/05/07 04:44:42;;;;;;;43.53;27.23;;;7.70;99.90;;;;;;5035625;28;20044;-59
2022/05/07 04:47:08;;;;;;;39.45;26.38;;;7.80;99.90;;;;;;5033599;28;20044;-60
2022/05/07 04:49:35;;;;;;;38.30;25.92;;;8.00;99.90;;;;;;5038621;28;20014;-61
2022/05/07 04:52:01;;;;;;;33.00;24.05;;;8.10;99.90;;;;;;5036365;28;20042;-60
2022/05/07 04:54:27;;;;;;;38.70;25.58;;;8.30;99.90;;;;;;5036470;28;20053;-60
2022/05/07 04:56:53;;;;;;;41.83;24.30;;;8.30;99.90;;;;;;5035141;28;20035;-60
2022/05/07 04:59:20;;;;;;;43.78;25.85;;;8.20;99.90;;;;;;5032024;28;20025;-60
2022/05/07 05:01:46;;;;;;;42.78;23.67;;;8.20;99.90;;;;;;5038332;28;20035;-60
2022/05/07 05:04:13;;;;;;;28.70;23.08;;;8.10;99.90;;;;;;5036331;28;20121;-60
2022/05/07 05:06:39;;;;;;;55.88;26.25;;;8.10;99.90;;;;;;5036217;28;20032;-60
2022/05/07 05:09:06;;;;;;;40.67;24.23;;;8.10;99.90;;;;;;5036161;28;20021;-60
2022/05/07 05:11:33;;;;;;;93.75;29.55;;;8.10;99.90;;;;;;5033533;28;20033;-60
2022/05/07 05:13:59;;;;;;;34.72;21.90;;;8.30;99.90;;;;;;5035175;28;20073;-60
2022/05/07 05:16:25;;;;;;;88.53;31.20;;;8.30;99.90;;;;;;5037247;28;20037;-60
2022/05/07 05:18:51;;;;;;;99.30;26.60;;;8.40;99.90;;;;;;5035118;28;20375;-60
2022/05/07 05:21:17;;;;;;;143.93;31.35;;;8.30;99.90;;;;;;5036415;28;20094;-60
2022/05/07 05:23:46;;;;;;;138.75;35.58;;;8.50;99.90;;;;;;5034651;28;20100;-60
2022/05/07 05:26:15;;;;;;;157.52;32.72;;;8.40;99.90;;;;;;5032024;28;20045;-60
2022/05/07 05:28:42;;;;;;;78.97;28.92;;;8.50;99.90;;;;;;5038093;28;20021;-59
2022/05/07 05:31:09;;;;;;;79.47;25.42;;;8.70;99.90;;;;;;5035657;28;20045;-60
2022/05/07 05:33:35;;;;;;;70.25;23.48;;;8.70;99.90;;;;;;5035856;28;20070;-60
2022/05/07 05:36:01;;;;;;;87.32;26.73;;;8.70;99.90;;;;;;5034664;28;20122;-60
2022/05/07 05:38:27;;;;;;;72.05;26.83;;;8.80;99.90;;;;;;5031876;28;20048;-61
2022/05/07 05:40:52;;;;;;;136.10;36.10;;;8.90;99.90;;;;;;5035545;28;20029;-60
2022/05/07 05:43:18;;;;;;;83.45;20.13;;;8.90;99.90;;;;;;5036247;28;20471;-60
2022/05/07 05:45:44;;;;;;;76.20;22.05;;;9.10;99.90;;;;;;5035503;28;20128;-60
2022/05/07 05:48:10;;;;;;;70.03;17.50;;;9.20;99.90;;;;;;5035793;28;20509;-60
2022/05/07 05:50:35;;;;;;;50.78;16.77;;;9.20;99.90;;;;;;5031902;28;20034;-60
2022/05/07 05:53:01;;;;;;;45.85;17.17;;;9.30;99.90;;;;;;5033758;28;20467;-60
2022/05/07 05:55:27;;;;;;;79.53;21.00;;;9.30;99.90;;;;;;5036669;28;20040;-60
2022/05/07 05:57:53;;;;;;;59.03;17.88;;;9.30;99.90;;;;;;5035086;28;20040;-60
2022/05/07 06:00:22;;;;;;;106.32;18.80;;;9.20;99.90;;;;;;5035651;28;20044;-60
2022/05/07 06:02:48;;;;;;;88.30;20.33;;;9.50;99.90;;;;;;5034823;28;20387;-60
2022/05/07 06:05:17;;;;;;;99.80;21.75;;;9.40;99.90;;;;;;5031413;28;20027;-60
2022/05/07 06:07:43;;;;;;;73.25;22.17;;;9.40;99.90;;;;;;5037311;28;20516;-60
2022/05/07 06:10:09;;;;;;;25.98;18.33;;;9.60;99.90;;;;;;5034572;28;20038;-60
2022/05/07 06:12:35;;;;;;;57.38;17.85;;;9.80;99.90;;;;;;5034916;28;20037;-60
2022/05/07 06:15:01;;;;;;;23.08;16.27;;;10.10;99.90;;;;;;5033985;28;20397;-60
2022/05/07 06:17:27;;;;;;;29.90;14.95;;;10.20;99.90;;;;;;5031462;28;20025;-60
2022/05/07 06:19:52;;;;;;;24.63;16.48;;;10.40;99.90;;;;;;5035294;28;20026;-59
2022/05/07 06:22:18;;;;;;;25.02;14.77;;;10.40;99.90;;;;;;5035884;28;20029;-60
2022/05/07 06:27:28;;;;;;;46.67;15.30;;;10.70;99.90;;;;;;5034783;28;20086;-60
2022/05/07 06:29:56;;;;;;;63.42;17.42;;;10.80;99.90;;;;;;5034544;28;20489;-59
2022/05/07 06:32:23;;;;;;;55.63;15.02;;;11.10;99.90;;;;;;5031140;28;20061;-60
2022/05/07 06:34:49;;;;;;;39.85;13.23;;;11.80;99.90;;;;;;5036402;28;20024;-59
2022/05/07 06:37:15;;;;;;;15.15;12.55;;;12.80;99.90;;;;;;5032927;28;20049;-60
2022/05/07 06:39:41;;;;;;;17.35;11.55;;;13.70;99.90;;;;;;5034279;28;20033;-59
2022/05/07 06:42:08;;;;;;;16.60;11.98;;;13.90;99.90;;;;;;5034659;28;20024;-60
2022/05/07 06:44:33;;;;;;;21.35;12.65;;;14.60;99.90;;;;;;5029906;28;20022;-60
2022/05/07 06:46:59;;;;;;;18.45;13.35;;;14.40;99.90;;;;;;5032322;28;20466;-59
2022/05/07 06:49:25;;;;;;;18.30;13.45;;;14.00;99.90;;;;;;5035488;28;20084;-59
2022/05/07 06:51:51;;;;;;;16.05;12.90;;;13.80;99.90;;;;;;5034526;28;20048;-62
2022/05/07 06:54:17;;;;;;;15.10;12.70;;;14.20;99.90;;;;;;5032866;28;20392;-61
2022/05/07 06:56:43;;;;;;;14.05;12.15;;;14.20;99.90;;;;;;5032703;28;20435;-60
2022/05/07 06:59:12;;;;;;;14.40;12.27;;;15.30;99.90;;;;;;5030843;28;20115;-59
2022/05/07 07:01:38;;;;;;;14.75;10.40;;;15.90;99.90;;;;;;5036515;28;20071;-60
2022/05/07 07:04:05;;;;;;;12.88;10.10;;;17.50;99.90;;;;;;5034045;28;20029;-60
2022/05/07 07:06:30;;;;;;;11.05;9.82;;;19.30;99.90;;;;;;5034162;28;20417;-60
2022/05/07 07:08:56;;;;;;;10.38;9.32;;;20.60;99.90;;;;;;5033477;28;20104;-60
2022/05/07 07:11:22;;;;;;;10.25;9.07;;;19.80;99.90;;;;;;5029431;28;20099;-60
2022/05/07 07:13:49;;;;;;;12.10;9.52;;;19.20;99.90;;;;;;5035988;28;20029;-60
2022/05/07 07:16:16;;;;;;;9.82;8.93;;;20.30;99.90;;;;;;5033769;28;20061;-60
2022/05/07 07:18:42;;;;;;;9.90;7.95;;;21.30;99.90;;;;;;5032750;28;20410;-60
2022/05/07 07:21:08;;;;;;;9.43;8.45;;;22.90;99.90;;;;;;5032913;28;20445;-60
2022/05/07 07:23:34;;;;;;;9.38;8.23;;;23.60;99.90;;;;;;5031504;28;20824;-61
2022/05/07 07:26:00;;;;;;;9.45;8.40;;;22.80;99.90;;;;;;5033187;28;20057;-61
2022/05/07 07:28:26;;;;;;;10.77;7.78;;;24.10;99.90;;;;;;5035630;28;20030;-61
2022/05/07 07:30:52;;;;;;;10.73;8.30;;;24.40;99.90;;;;;;5034071;28;20049;-61
2022/05/07 07:33:18;;;;;;;8.70;7.63;;;25.60;99.90;;;;;;5032652;28;20544;-61
2022/05/07 07:35:44;;;;;;;9.18;8.20;;;22.60;99.90;;;;;;5032348;28;20025;-59
2022/05/07 07:38:10;;;;;;;10.30;7.95;;;20.70;99.90;;;;;;5030629;28;20052;-60
2022/05/07 07:40:36;;;;;;;12.85;8.63;;;20.30;99.90;;;;;;5035587;28;20029;-60
2022/05/07 07:43:02;;;;;;;9.43;8.02;;;20.50;99.90;;;;;;5033574;28;20025;-60
2022/05/07 07:48:14;;;;;;;10.75;7.32;;;20.90;99.90;;;;;;5037582;28;20036;-61
2022/05/07 07:50:40;;;;;;;8.73;6.70;;;23.00;99.90;;;;;;5035380;28;20030;-60
2022/05/07 07:53:08;;;;;;;11.15;6.82;;;25.40;99.90;;;;;;5034720;28;20033;-61
2022/05/07 07:55:34;;;;;;;7.55;6.40;;;25.10;99.90;;;;;;5039280;28;20087;-61
2022/05/07 07:58:01;;;;;;;9.20;5.80;;;25.50;99.90;;;;;;5036412;28;20038;-60
2022/05/07 08:00:30;;;;;;;7.80;5.80;;;25.50;99.90;;;;;;5037339;28;20036;-58
2022/05/07 08:03:00;;;;;;;7.25;5.60;;;24.00;99.90;;;;;;5037439;28;20456;-59
2022/05/07 08:05:31;;;;;;;8.30;5.65;;;25.10;99.80;;;;;;5033331;28;20029;-58
2022/05/07 08:13:30;;;;;;;27.02;6.63;;;25.70;99.50;;;;;;5038893;28;20048;-77
2022/05/07 08:15:56;;;;;;;22.02;6.22;;;26.30;97.90;;;;;;5037264;28;20116;-76
2022/05/07 08:18:22;;;;;;;10.55;5.70;;;25.40;98.10;;;;;;5037220;28;20120;-76
2022/05/07 08:20:47;;;;;;;11.73;5.45;;;25.70;97.80;;;;;;5036613;28;20034;-76
2022/05/07 08:23:13;;;;;;;9.82;5.47;;;25.90;97.90;;;;;;5033945;28;20021;-76
2022/05/07 08:25:39;;;;;;;11.40;5.43;;;25.30;98.50;;;;;;5038966;28;20383;-75
2022/05/07 08:28:05;;;;;;;29.23;7.43;;;26.10;96.60;;;;;;5032377;28;20035;-76
2022/05/07 08:30:31;;;;;;;71.10;14.38;;;26.80;96.50;;;;;;5035951;28;20037;-71
2022/05/07 08:32:57;;;;;;;46.92;11.10;;;25.80;97.50;;;;;;5036335;28;20024;-74
2022/05/07 08:35:23;;;;;;;33.22;8.93;;;26.30;96.80;;;;;;5032542;28;20036;-75
2022/05/07 08:37:50;;;;;;;64.15;12.85;;;26.10;96.40;;;;;;5050382;28;20084;-77
2022/05/07 08:40:18;;;;;;;18.60;6.20;;;26.40;96.40;;;;;;5035999;28;20028;-78
2022/05/07 08:42:44;;;;;;;9.93;4.93;;;26.00;95.20;;;;;;5036469;28;20025;-77
2022/05/07 08:45:13;;;;;;;23.77;8.52;;;24.90;96.10;;;;;;5036585;28;20021;-78
2022/05/07 08:47:41;;;;;;;20.80;6.57;;;26.00;96.60;;;;;;5035023;28;20032;-77
2022/05/07 08:50:08;;;;;;;14.63;6.10;;;26.40;95.80;;;;;;5035066;28;20531;-72
2022/05/07 08:52:39;;;;;;;10.55;5.22;;;25.60;97.10;;;;;;5036029;28;20018;-74
2022/05/07 08:55:05;;;;;;;18.00;6.53;;;25.80;96.80;;;;;;5036948;28;20083;-74
2022/05/07 08:57:30;;;;;;;14.75;5.03;;;26.10;96.70;;;;;;5036781;28;20453;-65
2022/05/07 08:59:56;;;;;;;4.07;3.42;;;25.80;96.20;;;;;;5036138;28;20082;-65
2022/05/07 09:02:22;;;;;;;4.57;3.33;;;27.70;94.40;;;;;;5032437;28;20040;-65
2022/05/07 09:04:58;;;;;;;4.35;3.78;;;27.90;93.00;;;;;;5038449;28;20022;-65
2022/05/07 09:07:24;;;;;;;6.18;3.65;;;28.30;91.90;;;;;;5036947;28;20041;-66
2022/05/07 09:09:51;;;;;;;5.88;3.58;;;28.00;91.30;;;;;;5036144;28;20528;-65
2022/05/07 09:12:28;;;;;;;5.35;3.63;;;29.70;90.40;;;;;;5036293;28;20040;-64
2022/05/07 09:15:05;;;;;;;7.93;3.28;;;31.10;89.50;;;;;;5036234;28;20021;-65
2022/05/07 09:17:32;;;;;;;7.35;3.30;;;31.30;85.80;;;;;;5032879;28;20362;-65
2022/05/07 09:19:58;;;;;;;3.28;2.90;;;31.40;85.10;;;;;;5035919;28;20018;-64
2022/05/07 09:22:25;;;;;;;4.15;2.83;;;;;;;;;;5036070;28;20069;-65
2022/05/07 09:24:55;;;;;;;3.50;2.92;;;31.10;82.70;;;;;;5036564;28;20033;-65
2022/05/07 09:27:24;;;;;;;3.67;2.63;;;30.90;83.30;;;;;;5035949;28;20104;-65
2022/05/07 09:30:03;;;;;;;4.20;2.78;;;30.60;81.60;;;;;;5034344;28;20597;-65
2022/05/07 09:32:36;;;;;;;3.40;2.50;;;29.50;83.20;;;;;;5018132;28;20387;-65
2022/05/07 09:38:02;;;;;;;6.40;2.60;;;29.00;81.90;;;;;;5072934;28;19923;-65
2022/05/07 09:40:29;;;;;;;3.13;2.42;;;29.80;79.70;;;;;;5037449;28;20064;-65
2022/05/07 09:42:59;;;;;;;4.97;2.15;;;31.30;75.00;;;;;;5036083;28;20046;-65
2022/05/07 09:45:27;;;;;;;3.47;2.30;;;30.60;74.30;;;;;;5035645;28;20207;-65
2022/05/07 09:47:54;;;;;;;2.72;2.13;;;29.90;77.30;;;;;;5035175;28;20379;-65
2022/05/07 09:50:24;;;;;;;2.28;1.83;;;31.00;75.60;;;;;;5015715;28;20058;-64
2022/05/07 09:58:33;;;;;;;2.88;1.75;;;29.30;72.00;;;;;;5011009;28;20046;-65
2022/05/07 10:01:20;;;;;;;2.42;1.55;;;30.60;75.70;;;;;;5009861;28;20041;-64
2022/05/07 10:04:06;;;;;;;2.83;2.30;;;29.70;73.90;;;;;;5009958;28;20119;-65
2022/05/07 10:06:40;;;;;;;3.58;2.00;;;30.80;73.90;;;;;;5010308;28;20034;-65
2022/05/07 10:09:21;;;;;;;3.28;2.13;;;31.80;72.40;;;;;;5010618;28;20092;-64
2022/05/07 10:11:53;;;;;;;2.85;1.98;;;31.40;69.00;;;;;;5010294;28;20372;-64
2022/05/07 10:14:30;;;;;;;4.35;1.90;;;31.50;70.20;;;;;;4994687;28;20036;-64
2022/05/07 10:17:00;;;;;;;2.85;1.70;;;30.90;69.90;;;;;;5007186;28;20092;-64
2022/05/07 10:19:38;;;;;;;6.15;2.10;;;30.60;72.00;;;;;;5009974;28;20033;-64
2022/05/07 10:22:24;;;;;;;3.80;1.95;;;28.40;73.60;;;;;;5009837;28;20046;-63
2022/05/07 10:25:13;;;;;;;3.00;2.00;;;29.30;71.90;;;;;;5010262;28;20485;-65
2022/05/07 10:27:44;;;;;;;3.78;2.13;;;28.90;72.60;;;;;;5009790;28;20108;-64
2022/05/07 10:30:21;;;;;;;10.07;2.30;;;28.80;73.50;;;;;;5009460;28;20026;-64
2022/05/07 10:32:56;;;;;;;5.07;2.22;;;29.50;73.40;;;;;;5009928;28;20010;-64
2022/05/07 10:36:06;;;;;;;7.43;2.60;;;30.20;72.40;;;;;;5015325;28;20075;-64
2022/05/07 10:38:37;;;;;;;3.55;2.20;;;31.00;72.00;;;;;;4997020;28;20053;-63
2022/05/07 10:41:18;;;;;;;4.60;2.20;;;31.30;69.20;;;;;;5012470;28;20069;-63
2022/05/07 10:44:05;;;;;;;4.15;2.10;;;31.20;71.40;;;;;;5014157;28;20042;-63
2022/05/07 10:46:43;;;;;;;3.03;2.10;;;29.90;71.20;;;;;;5012271;28;20156;-64
2022/05/07 10:49:10;;;;;;;3.97;1.90;;;30.70;74.50;;;;;;5014308;28;20545;-63
2022/05/07 10:51:36;;;;;;;3.33;2.05;;;30.70;71.30;;;;;;5013936;28;20375;-63
2022/05/07 10:54:14;;;;;;;3.70;2.53;;;30.40;71.00;;;;;;5013852;28;20030;-64
2022/05/07 10:56:46;;;;;;;2.88;2.13;;;29.60;73.00;;;;;;5011904;28;20045;-64
2022/05/07 10:59:12;;;;;;;2.63;1.90;;;30.00;74.20;;;;;;5010143;28;20048;-64
2022/05/07 11:01:38;;;;;;;2.70;1.90;;;30.00;73.00;;;;;;5014617;28;20414;-63
2022/05/07 11:04:13;;;;;;;4.60;2.53;;;29.30;73.70;;;;;;5013650;28;20034;-63
2022/05/07 11:06:50;;;;;;;3.90;2.22;;;26.50;76.00;;;;;;5013498;28;20048;-63
2022/05/07 11:09:33;;;;;;;2.90;2.08;;;26.50;77.00;;;;;;5013726;28;20022;-63
2022/05/07 11:11:59;;;;;;;3.55;2.25;;;26.80;76.80;;;;;;5020958;28;20064;-64
2022/05/07 11:14:27;;;;;;;3.63;2.03;;;27.90;76.80;;;;;;5029816;28;20033;-63
2022/05/07 11:16:55;;;;;;;4.47;2.35;;;28.70;75.50;;;;;;5034968;28;20067;-63
2022/05/07 11:19:35;;;;;;;3.30;2.20;;;28.70;74.00;;;;;;5033353;28;20157;-63
2022/05/07 11:22:03;;;;;;;2.90;2.22;;;29.50;75.10;;;;;;5033976;28;20091;-63
2022/05/07 11:24:31;;;;;;;4.65;2.08;;;29.90;77.10;;;;;;5034051;28;20452;-63
2022/05/07 11:27:10;;;;;;;4.38;2.30;;;29.60;75.40;;;;;;5032720;28;20033;-64
2022/05/07 11:29:36;;;;;;;3.90;2.00;;;28.80;74.10;;;;;;5031655;28;20109;-63
2022/05/07 11:32:07;;;;;;;3.72;2.30;;;28.10;76.00;;;;;;5032792;28;20033;-63
2022/05/07 11:34:35;;;;;;;3.45;2.47;;;27.60;76.40;;;;;;5034418;28;20111;-64
2022/05/07 11:37:12;;;;;;;4.32;2.58;;;27.20;79.20;;;;;;5033820;28;20046;-63
2022/05/07 11:39:57;;;;;;;3.85;2.30;;;27.10;78.70;;;;;;5034366;28;20037;-63
2022/05/07 11:42:34;;;;;;;4.53;2.22;;;27.60;76.70;;;;;;5033940;28;20052;-64
2022/05/07 11:47:57;;;;;;;4.00;2.40;;;27.30;77.80;;;;;;5033324;28;20036;-63
2022/05/07 11:50:31;;;;;;;3.05;2.22;;;27.30;77.50;;;;;;5014295;28;20167;-63
2022/05/07 11:53:14;;;;;;;4.13;2.33;;;27.60;76.70;;;;;;5034111;28;20525;-63
2022/05/07 11:55:41;;;;;;;3.83;2.45;;;28.10;79.20;;;;;;5035901;28;20481;-64
2022/05/07 11:58:23;;;;;;;4.68;2.42;;;28.20;75.80;;;;;;5033517;28;20037;-64
2022/05/07 12:00:55;;;;;;;2.90;2.40;;;27.80;78.20;;;;;;5033623;28;20033;-64
2022/05/07 12:03:26;;;;;;;3.35;2.33;;;27.60;75.30;;;;;;5034092;28;20097;-64
2022/05/07 12:05:54;;;;;;;4.80;2.40;;;28.00;78.00;;;;;;5030805;28;20029;-63
2022/05/07 12:08:24;;;;;;;3.65;2.30;;;28.80;76.00;;;;;;5013737;28;20018;-63
2022/05/07 12:10:53;;;;;;;3.33;2.33;;;26.30;77.50;;;;;;5043263;28;20094;-64
2022/05/07 12:13:21;;;;;;;3.30;2.40;;;26.10;77.70;;;;;;5033990;28;20026;-63
2022/05/07 12:18:31;;;;;;;4.78;2.55;;;25.80;81.60;;;;;;5034123;28;20037;-64
2022/05/07 12:20:58;;;;;;;4.45;3.50;;;27.30;78.10;;;;;;5033900;28;20394;-64
2022/05/07 12:31:37;;;;;;;5.38;3.88;;;26.80;82.70;;;;;;5038271;28;20474;-63
2022/05/07 12:34:04;;;;;;;5.35;3.88;;;27.00;83.10;;;;;;5037152;28;20041;-63
2022/05/07 12:36:32;;;;;;;7.32;4.10;;;26.20;84.50;;;;;;5036867;28;20126;-63
2022/05/07 12:38:59;;;;;;;6.07;3.78;;;26.40;86.40;;;;;;5036943;28;20406;-63
2022/05/07 12:41:29;;;;;;;5.32;3.67;;;26.60;86.80;;;;;;5032557;28;20117;-64
2022/05/07 12:43:57;;;;;;;6.50;3.63;;;27.10;83.60;;;;;;5037708;28;20087;-63
2022/05/07 12:46:24;;;;;;;6.40;3.35;;;27.80;83.10;;;;;;5036763;28;20547;-64
2022/05/07 12:48:50;;;;;;;7.57;4.07;;;28.00;84.20;;;;;;5036599;28;20064;-63
2022/05/07 12:51:16;;;;;;;16.90;5.18;;;28.40;87.50;;;;;;5036825;28;20048;-63
2022/05/07 12:53:42;;;;;;;6.22;4.47;;;27.90;87.50;;;;;;5035090;28;20516;-63
2022/05/07 12:56:08;;;;;;;9.30;3.92;;;27.60;87.00;;;;;;5033591;28;20021;-63
2022/05/07 12:58:35;;;;;;;9.88;3.90;;;27.30;86.30;;;;;;5038616;28;20032;-64
2022/05/07 13:01:03;;;;;;;6.10;4.30;;;26.90;87.80;;;;;;5036948;28;20394;-63
2022/05/07 13:03:29;;;;;;;6.30;4.07;;;26.40;88.50;;;;;;5036539;28;20029;-63
2022/05/07 13:05:55;;;;;;;7.13;4.10;;;26.40;89.10;;;;;;5036434;28;20064;-63
2022/05/07 13:08:20;;;;;;;5.90;3.75;;;26.30;89.40;;;;;;5032517;28;20033;-63
2022/05/07 13:10:47;;;;;;;6.97;4.00;;;26.00;90.60;;;;;;5038107;28;20048;-63
2022/05/07 13:13:13;;;;;;;11.25;4.40;;;25.90;90.30;;;;;;5036202;28;20040;-63
2022/05/07 13:15:39;;;;;;;8.90;5.40;;;26.20;90.30;;;;;;5036458;28;20030;-63
2022/05/07 13:18:05;;;;;;;8.32;4.72;;;26.50;90.40;;;;;;5036160;28;20524;-63
2022/05/07 13:20:31;;;;;;;11.00;5.00;;;26.80;90.00;;;;;;5032853;28;20437;-63
2022/05/07 13:22:57;;;;;;;7.70;4.35;;;26.50;88.40;;;;;;5036699;28;20030;-63
2022/05/07 13:25:23;;;;;;;7.90;4.63;;;26.70;88.20;;;;;;5033833;28;20036;-63